Elisabeth — LHEA — position and weather

sailwx.info

Track history (hours):
 
Tides and Currents Weather Stations Pressure Air Temp Water Temp Dewpoint Dewpoint Depression Visibility Wind Speed Wind Dir Waves Ship Positions

Elisabeth

Last reported at 2017-Oct-18 04:26 UTC. Time now 2017-Oct-20 14:52 UTC.
Position N 62°21' E 004°45'.

Length 61 m; draft 5.6 m.

Type: Fishing. MMSI: 259166000.

Date/timePositionNaut miles runAvg speedWind from/ knotsBaromVisibWave heightAir tempDewpointWater temp
2017-Oct-18 04:26N 62°21' E 004°45'4 9.9
2017-Oct-18 04:00N 62°18' E 004°50'510.6
2017-Oct-18 03:30N 62°13' E 004°56'510.6
2017-Oct-18 02:59N 62°09' E 005°03'510.8
2017-Oct-18 02:30N 62°04' E 005°08'611.1
2017-Oct-18 02:00N 61°58' E 005°09'510.2
2017-Oct-18 01:30N 61°53' E 005°10'4 8.4
2017-Oct-18 01:00N 61°50' E 005°15'511.0
2017-Oct-18 00:30N 61°47' E 005°05'510.7
2017-Oct-18 00:00N 61°43' E 004°58'611.0
2017-Oct-17 23:30N 61°37' E 004°59'510.0
2017-Oct-17 23:00N 61°32' E 005°01'510.2
2017-Oct-17 22:30N 61°28' E 004°57'611.2
2017-Oct-17 22:00N 61°23' E 004°50'611.4
2017-Oct-17 21:29N 61°17' E 004°48'510.9
2017-Oct-17 21:00N 61°13' E 004°42'611.6
2017-Oct-17 20:30N 61°07' E 004°45'510.0
2017-Oct-17 20:00N 61°02' E 004°45'611.6
2017-Oct-17 19:30N 60°56' E 004°46'611.5
2017-Oct-17 19:00N 60°51' E 004°46'510.5
2017-Oct-17 18:29N 60°45' E 004°47'612.2
2017-Oct-17 18:00N 60°40' E 004°52'612.5
2017-Oct-17 17:30N 60°34' E 004°55'612.6
2017-Oct-17 17:00N 60°28' E 005°00'611.9
2017-Oct-17 16:30N 60°24' E 005°09'5 9.7
2017-Oct-17 16:00N 60°24' E 005°19'4 7.3
2017-Oct-17 15:29N 60°23' E 005°12'612.5
2017-Oct-17 15:00N 60°17' E 005°09'713.0
2017-Oct-17 14:30N 60°11' E 005°11'612.5
2017-Oct-17 14:00N 60°04' E 005°10'612.0
2017-Oct-17 13:30N 59°59' E 005°13'511.1
2017-Oct-17 13:00N 59°53' E 005°13'612.5
2017-Oct-17 12:30N 59°48' E 005°19'612.5
2017-Oct-17 12:00N 59°42' E 005°24'612.7
2017-Oct-17 11:30N 59°37' E 005°16'1 2.5
2017-Oct-17 11:00N 59°36' E 005°14'0 0.0
2017-Oct-17 10:30N 59°36' E 005°14'0 0.0
2017-Oct-17 10:00N 59°36' E 005°14'0 0.0
2017-Oct-17 09:30N 59°36' E 005°14'0 0.0
2017-Oct-17 09:01N 59°36' E 005°14'0 0.0
2017-Oct-17 08:30N 59°36' E 005°14'0 0.0
2017-Oct-17 08:01N 59°36' E 005°14'0 0.0
2017-Oct-17 07:30N 59°36' E 005°14'0 0.0
2017-Oct-17 06:59N 59°36' E 005°14'0 0.0
2017-Oct-17 06:30N 59°36' E 005°14'0 0.0
2017-Oct-17 06:00N 59°36' E 005°14'0 0.0
2017-Oct-17 05:30N 59°36' E 005°14'0 0.0
2017-Oct-17 05:01N 59°36' E 005°14'0 0.0
2017-Oct-17 04:29N 59°36' E 005°14'0 0.0
2017-Oct-17 04:00N 59°36' E 005°14'0 0.0
2017-Oct-17 03:30N 59°36' E 005°14'0 0.0
2017-Oct-17 03:00N 59°36' E 005°14'0 0.0
2017-Oct-17 02:30N 59°36' E 005°14'0 0.0
2017-Oct-17 01:59N 59°36' E 005°14'0 0.0
2017-Oct-17 01:30N 59°36' E 005°14'0 0.0
2017-Oct-17 01:00N 59°36' E 005°14'0 0.0
2017-Oct-17 00:30N 59°36' E 005°14'0 0.0
2017-Oct-17 00:00N 59°36' E 005°14'0 0.0
2017-Oct-16 23:30N 59°36' E 005°14'0 0.0
2017-Oct-16 23:00N 59°36' E 005°14'0 0.0
2017-Oct-16 22:30N 59°36' E 005°14'0 0.0
2017-Oct-16 22:00N 59°36' E 005°14'0 0.0
2017-Oct-16 21:30N 59°36' E 005°14'0 0.0
2017-Oct-16 21:00N 59°36' E 005°14'0 0.0
2017-Oct-16 20:30N 59°36' E 005°14'0 0.0
2017-Oct-16 20:00N 59°36' E 005°14'0 0.0
2017-Oct-16 19:30N 59°36' E 005°14'0 0.0
2017-Oct-16 19:00N 59°36' E 005°14'0 0.0
2017-Oct-16 18:30N 59°36' E 005°14'0 0.0
2017-Oct-16 18:00N 59°36' E 005°14'0 0.0
2017-Oct-16 17:30N 59°36' E 005°14'0 0.0
2017-Oct-16 17:00N 59°36' E 005°14'0 0.0
2017-Oct-16 16:30N 59°36' E 005°14'0 0.0
2017-Oct-16 16:00N 59°36' E 005°14'0 0.0
2017-Oct-16 15:30N 59°36' E 005°14'0 0.0
2017-Oct-16 15:01N 59°36' E 005°14'0 0.0
2017-Oct-16 14:00N 59°36' E 005°14'0 0.0
2017-Oct-16 13:30N 59°36' E 005°14'0 0.0
2017-Oct-16 13:00N 59°36' E 005°14'0 0.0
2017-Oct-16 12:30N 59°36' E 005°14'0 0.0
2017-Oct-16 12:00N 59°36' E 005°14'0 0.0
2017-Oct-16 11:30N 59°36' E 005°14'0 0.0
2017-Oct-16 11:01N 59°36' E 005°14'0 0.0
2017-Oct-16 10:30N 59°36' E 005°14'0 0.0
2017-Oct-16 10:00N 59°36' E 005°14'0 0.0
2017-Oct-16 09:30N 59°36' E 005°14'0 0.0
2017-Oct-16 09:00N 59°36' E 005°14'0 0.0
2017-Oct-16 08:30N 59°36' E 005°14'0 0.0
2017-Oct-16 08:00N 59°36' E 005°14'0 0.0
2017-Oct-16 07:29N 59°36' E 005°14'0 0.0
2017-Oct-16 07:00N 59°36' E 005°14'0 0.0
2017-Oct-16 06:30N 59°36' E 005°14'0 0.0
2017-Oct-16 06:00N 59°36' E 005°14'0 0.0
2017-Oct-16 05:30N 59°36' E 005°14'0 0.0
2017-Oct-16 05:00N 59°36' E 005°14'0 0.0
2017-Oct-16 04:30N 59°36' E 005°14'0 0.0
2017-Oct-16 04:00N 59°36' E 005°14'0 0.0
2017-Oct-16 03:31N 59°36' E 005°14'0 0.0
2017-Oct-16 03:00N 59°36' E 005°14'0 0.0
2017-Oct-16 02:30N 59°36' E 005°14'0 0.0
2017-Oct-16 02:00N 59°36' E 005°14'0 0.0
2017-Oct-16 01:30N 59°36' E 005°14'0 0.0
2017-Oct-16 01:00N 59°36' E 005°14'0 0.0
2017-Oct-16 00:29N 59°36' E 005°14'0 0.0
2017-Oct-16 00:00N 59°36' E 005°14'0 0.0
2017-Oct-15 23:30N 59°36' E 005°14'0 0.0
2017-Oct-15 23:00N 59°36' E 005°14'0 0.0
2017-Oct-15 22:30N 59°36' E 005°14'0 0.0
2017-Oct-15 22:00N 59°36' E 005°14'0 0.0
2017-Oct-15 21:30N 59°36' E 005°14'0 0.0
2017-Oct-15 21:00N 59°36' E 005°14'0 0.0
2017-Oct-15 20:30N 59°36' E 005°14'0 0.0
2017-Oct-15 20:00N 59°36' E 005°14'0 0.0
2017-Oct-15 19:30N 59°36' E 005°14'0 0.0
2017-Oct-15 19:00N 59°36' E 005°14'0 0.0
2017-Oct-15 18:30N 59°36' E 005°14'0 0.0
2017-Oct-15 18:01N 59°36' E 005°14'0 0.0
2017-Oct-15 17:30N 59°36' E 005°14'0 0.0
2017-Oct-15 17:00N 59°36' E 005°14'0 0.0
2017-Oct-15 16:30N 59°36' E 005°14'0 0.0
2017-Oct-15 16:00N 59°36' E 005°14'0 0.0
2017-Oct-15 15:30N 59°36' E 005°14'0 0.0
2017-Oct-15 15:00N 59°36' E 005°14'0 0.0
2017-Oct-15 14:00N 59°36' E 005°14'0 0.0
2017-Oct-15 13:30N 59°36' E 005°14'0 0.0
2017-Oct-15 13:00N 59°36' E 005°14'0 0.0
2017-Oct-15 12:30N 59°36' E 005°14'0 0.0
2017-Oct-15 12:01N 59°36' E 005°14'0 0.0
2017-Oct-15 11:30N 59°36' E 005°14'0 0.0
2017-Oct-15 11:00N 59°36' E 005°14'0 0.0
2017-Oct-15 10:31N 59°36' E 005°14'0 0.0
2017-Oct-15 10:00N 59°36' E 005°14'0 0.0
2017-Oct-15 09:30N 59°36' E 005°14'0 0.0
2017-Oct-15 09:00N 59°36' E 005°14'0 0.0
2017-Oct-15 08:30N 59°36' E 005°14'0 0.0
2017-Oct-15 08:00N 59°36' E 005°14'0 0.0
2017-Oct-15 07:30N 59°36' E 005°14'0 0.0
2017-Oct-15 07:00N 59°36' E 005°14'0 0.0
2017-Oct-15 06:30N 59°36' E 005°14'0 0.0
2017-Oct-15 06:00N 59°36' E 005°14'0 0.0
2017-Oct-15 05:30N 59°36' E 005°14'0 0.0
2017-Oct-15 05:01N 59°36' E 005°14'0 0.0
2017-Oct-15 04:30N 59°36' E 005°14'0 0.0
2017-Oct-15 04:00N 59°36' E 005°14'0 0.0
2017-Oct-15 03:30N 59°36' E 005°14'0 0.0
2017-Oct-15 03:00N 59°36' E 005°14'0 0.0
2017-Oct-15 02:30N 59°36' E 005°14'0 0.0
2017-Oct-15 02:00N 59°36' E 005°14'0 0.0
2017-Oct-15 01:30N 59°36' E 005°14'0 0.0
2017-Oct-15 01:00N 59°36' E 005°14'0 0.0
2017-Oct-15 00:31N 59°36' E 005°14'0 0.0
2017-Oct-15 00:00N 59°36' E 005°14'0 0.0
2017-Oct-14 23:30N 59°36' E 005°14'0 0.0
2017-Oct-14 23:01N 59°36' E 005°14'0 0.0
2017-Oct-14 22:31N 59°36' E 005°14'0 0.0
2017-Oct-14 22:00N 59°36' E 005°14'0 0.0
2017-Oct-14 21:30N 59°36' E 005°14'0 0.0
2017-Oct-14 21:00N 59°36' E 005°14'0 0.0
2017-Oct-14 20:30N 59°36' E 005°14'0 0.0
2017-Oct-14 20:00N 59°36' E 005°14'0 0.0
2017-Oct-14 19:30N 59°36' E 005°14'0 0.0
2017-Oct-14 19:00N 59°36' E 005°14'0 0.0
2017-Oct-14 18:31N 59°36' E 005°14'0 0.0
2017-Oct-14 18:00N 59°36' E 005°14'0 0.0
2017-Oct-14 17:30N 59°36' E 005°14'0 0.0
2017-Oct-14 16:59N 59°36' E 005°14'0 0.0
2017-Oct-14 16:30N 59°36' E 005°14'0 0.0
2017-Oct-14 16:00N 59°36' E 005°14'0 0.0
2017-Oct-14 15:30N 59°36' E 005°14'0 0.0
2017-Oct-14 14:59N 59°36' E 005°14'0 0.0
2017-Oct-14 14:30N 59°36' E 005°14'0 0.0
2017-Oct-14 14:00N 59°36' E 005°14'0 0.0
2017-Oct-14 13:30N 59°36' E 005°14'0 0.0
2017-Oct-14 13:00N 59°36' E 005°14'0 0.0
2017-Oct-14 12:31N 59°36' E 005°14'0 0.0
2017-Oct-14 12:01N 59°36' E 005°14'0 0.0
2017-Oct-14 11:30N 59°36' E 005°14'0 0.0
2017-Oct-14 10:59N 59°36' E 005°14'0 0.0
2017-Oct-14 10:30N 59°36' E 005°14'0 0.0
2017-Oct-14 10:00N 59°36' E 005°14'0 0.0
2017-Oct-14 09:30N 59°36' E 005°14'0 0.0
2017-Oct-14 09:00N 59°36' E 005°14'0 0.0
2017-Oct-14 08:30N 59°36' E 005°14'0 0.0
2017-Oct-14 08:00N 59°36' E 005°14'0 0.0
2017-Oct-14 07:30N 59°36' E 005°14'0 0.0
2017-Oct-14 07:00N 59°36' E 005°14'0 0.0
2017-Oct-14 06:30N 59°36' E 005°14'0 0.0
2017-Oct-14 06:00N 59°36' E 005°14'0 0.0
2017-Oct-14 05:31N 59°36' E 005°14'0 0.0
2017-Oct-14 05:01N 59°36' E 005°14'0 0.0
2017-Oct-14 04:30N 59°36' E 005°14'0 0.0
2017-Oct-14 04:00N 59°36' E 005°14'0 0.0
2017-Oct-14 03:30N 59°36' E 005°14'0 0.0
2017-Oct-14 03:00N 59°36' E 005°14'0 0.0
2017-Oct-14 02:30N 59°36' E 005°14'0 0.0
2017-Oct-14 02:00N 59°36' E 005°14'0 0.0
2017-Oct-14 01:30N 59°36' E 005°14'0 0.0
2017-Oct-14 01:00N 59°36' E 005°14'0 0.0
2017-Oct-14 00:30N 59°36' E 005°14'0 0.0
2017-Oct-14 00:00N 59°36' E 005°14'0 0.0
2017-Oct-13 23:30N 59°36' E 005°14'0 0.0
2017-Oct-13 23:00N 59°36' E 005°14'0 0.0
2017-Oct-13 22:31N 59°36' E 005°14'0 0.0
2017-Oct-13 22:00N 59°36' E 005°14'0 0.0
2017-Oct-13 21:31N 59°36' E 005°14'0 0.0
2017-Oct-13 21:01N 59°36' E 005°14'0 0.0
2017-Oct-13 20:30N 59°36' E 005°14'0 0.0
2017-Oct-13 19:59N 59°36' E 005°14'0 0.0
2017-Oct-13 19:30N 59°36' E 005°14'0 0.0
2017-Oct-13 18:59N 59°36' E 005°14'0 0.0
2017-Oct-13 18:30N 59°36' E 005°14'0 0.0
2017-Oct-13 18:00N 59°36' E 005°14'0 0.0
2017-Oct-13 17:30N 59°36' E 005°14'0 0.0
2017-Oct-13 17:00N 59°36' E 005°14'0 0.0
2017-Oct-13 16:30N 59°36' E 005°14'0 0.0
2017-Oct-13 16:00N 59°36' E 005°14'0 0.0
2017-Oct-13 15:30N 59°36' E 005°14'0 0.0
2017-Oct-13 15:00N 59°36' E 005°14'0 0.0
2017-Oct-13 14:30N 59°36' E 005°14'0 0.0
2017-Oct-13 14:00N 59°36' E 005°14'0 0.0
2017-Oct-13 13:30N 59°36' E 005°14'0 0.0
2017-Oct-13 13:00N 59°36' E 005°14'0 0.0
2017-Oct-13 12:30N 59°36' E 005°14'0 0.0
2017-Oct-13 12:00N 59°36' E 005°14'0 0.0
2017-Oct-13 11:30N 59°36' E 005°14'0 0.0
2017-Oct-13 11:00N 59°36' E 005°14'0 0.0
2017-Oct-13 10:30N 59°36' E 005°14'0 0.0
2017-Oct-13 10:00N 59°36' E 005°14'0 0.0
2017-Oct-13 09:30N 59°36' E 005°14'0 0.0
2017-Oct-13 09:00N 59°36' E 005°14'0 0.0
2017-Oct-13 08:30N 59°36' E 005°14'0 0.0
2017-Oct-13 08:00N 59°36' E 005°14'0 0.0
2017-Oct-13 07:30N 59°36' E 005°14'0 0.0
2017-Oct-13 07:00N 59°36' E 005°14'0 0.0
2017-Oct-13 06:30N 59°36' E 005°14'0 0.0
2017-Oct-13 06:01N 59°36' E 005°14'0 0.0
2017-Oct-13 05:30N 59°36' E 005°14'0 0.0
2017-Oct-13 05:00N 59°36' E 005°14'0 0.0
2017-Oct-13 04:30N 59°36' E 005°14'0 0.0
2017-Oct-13 04:00N 59°36' E 005°14'0 0.0
2017-Oct-13 03:30N 59°36' E 005°14'0 0.0
2017-Oct-13 02:59N 59°36' E 005°14'0 0.0
2017-Oct-13 02:30N 59°36' E 005°14'0 0.0
2017-Oct-13 02:01N 59°36' E 005°14'0 0.0
2017-Oct-13 01:30N 59°36' E 005°14'0 0.0
2017-Oct-13 01:00N 59°36' E 005°14'0 0.0
2017-Oct-13 00:31N 59°36' E 005°14'0 0.0
2017-Oct-13 00:00N 59°36' E 005°14'0 0.0
2017-Oct-12 23:30N 59°36' E 005°14'0 0.0
2017-Oct-12 23:01N 59°36' E 005°14'0 0.0
2017-Oct-12 22:30N 59°36' E 005°14'0 0.0
2017-Oct-12 21:58N 59°36' E 005°14'0 0.0
2017-Oct-12 21:31N 59°36' E 005°14'0 0.0
2017-Oct-12 21:01N 59°36' E 005°14'0 0.0
2017-Oct-12 20:30N 59°36' E 005°14'0 0.0
2017-Oct-12 20:01N 59°36' E 005°14'0 0.0
2017-Oct-12 19:31N 59°36' E 005°14'0 0.0
2017-Oct-12 19:00N 59°36' E 005°14'0 0.0
2017-Oct-12 18:31N 59°36' E 005°14'0 0.0
2017-Oct-12 18:00N 59°36' E 005°14'0 0.0
2017-Oct-12 17:31N 59°36' E 005°14'0 0.0
2017-Oct-12 17:01N 59°36' E 005°14'0 0.0
2017-Oct-12 16:29N 59°36' E 005°14'0 0.0
2017-Oct-12 16:00N 59°36' E 005°14'0 0.0
2017-Oct-12 15:29N 59°36' E 005°14'0 0.0
2017-Oct-12 14:59N 59°36' E 005°14'0 0.0
2017-Oct-12 14:31N 59°36' E 005°14'0 0.0
2017-Oct-12 14:00N 59°36' E 005°14'0 0.0
2017-Oct-12 13:31N 59°36' E 005°14'0 0.0
2017-Oct-12 13:00N 59°36' E 005°14'0 0.0
2017-Oct-12 12:31N 59°36' E 005°14'0 0.0
2017-Oct-12 12:00N 59°36' E 005°14'0 0.0
2017-Oct-12 11:30N 59°36' E 005°14'0 0.0
2017-Oct-12 11:01N 59°36' E 005°14'0 0.0
2017-Oct-12 10:30N 59°36' E 005°14'0 0.0
2017-Oct-12 10:00N 59°36' E 005°14'0 0.0
2017-Oct-12 09:30N 59°36' E 005°14'0 0.0
2017-Oct-12 09:00N 59°36' E 005°14'0 0.0
2017-Oct-12 08:29N 59°36' E 005°14'0 0.0
2017-Oct-12 08:00N 59°36' E 005°14'0 0.0
2017-Oct-12 07:31N 59°36' E 005°14'0 0.0
2017-Oct-12 07:00N 59°36' E 005°14'0 0.0
2017-Oct-12 06:30N 59°36' E 005°14'0 0.0
2017-Oct-12 06:00N 59°36' E 005°14'0 0.0
2017-Oct-12 05:30N 59°36' E 005°14'0 0.0
2017-Oct-12 05:01N 59°36' E 005°14'0 0.0
2017-Oct-12 04:30N 59°36' E 005°14'0 0.0
2017-Oct-12 04:00N 59°36' E 005°14'0 0.0
2017-Oct-12 03:30N 59°36' E 005°14'0 0.0
2017-Oct-12 03:00N 59°36' E 005°14'0 0.0
2017-Oct-12 02:30N 59°36' E 005°14'0 0.0
2017-Oct-12 02:00N 59°36' E 005°14'0 0.0
2017-Oct-12 01:30N 59°36' E 005°14'0 0.0
2017-Oct-12 01:00N 59°36' E 005°14'0 0.0
2017-Oct-12 00:30N 59°36' E 005°14'0 0.0
2017-Oct-12 00:00N 59°36' E 005°14'0 0.0
2017-Oct-11 23:30N 59°36' E 005°14'0 0.0
2017-Oct-11 23:00N 59°36' E 005°14'0 0.0
2017-Oct-11 22:30N 59°36' E 005°14'0 0.0
2017-Oct-11 22:00N 59°36' E 005°14'0 0.0
2017-Oct-11 21:31N 59°36' E 005°14'0 0.0
2017-Oct-11 21:00N 59°36' E 005°14'0 0.0
2017-Oct-11 20:30N 59°36' E 005°14'0 0.0
2017-Oct-11 20:01N 59°36' E 005°14'0 0.0
2017-Oct-11 19:30N 59°36' E 005°14'0 0.0
2017-Oct-11 19:00N 59°36' E 005°14'0 0.0
2017-Oct-11 18:30N 59°36' E 005°14'0 0.0
2017-Oct-11 18:01N 59°36' E 005°14'0 0.0
2017-Oct-11 17:30N 59°36' E 005°14'0 0.0
2017-Oct-11 17:00N 59°36' E 005°14'0 0.0
2017-Oct-11 00:00N 59°36' E 005°14'0 0.0
2017-Oct-10 23:30N 59°36' E 005°14'0 0.0
2017-Oct-10 23:00N 59°36' E 005°14'0 0.0
2017-Oct-10 22:30N 59°36' E 005°14'0 0.0
2017-Oct-10 22:01N 59°36' E 005°14'0 0.0
2017-Oct-10 21:31N 59°36' E 005°14'0 0.0
2017-Oct-10 21:00N 59°36' E 005°14'0 0.0
2017-Oct-10 20:30N 59°36' E 005°14'0 0.0
2017-Oct-10 20:00N 59°36' E 005°14'0 0.0
2017-Oct-10 19:31N 59°36' E 005°14'0 0.0
2017-Oct-10 19:00N 59°36' E 005°14'0 0.0
2017-Oct-10 18:29N 59°36' E 005°14'0 0.0
2017-Oct-10 18:00N 59°36' E 005°14'0 0.0
2017-Oct-10 17:29N 59°36' E 005°14'0 0.0
2017-Oct-10 17:01N 59°36' E 005°14'0 0.0
2017-Oct-10 16:30N 59°36' E 005°14'0 0.0
2017-Oct-10 16:00N 59°36' E 005°14'0 0.0
2017-Oct-10 15:29N 59°36' E 005°14'0 0.0
2017-Oct-10 15:01N 59°36' E 005°14'0 0.3
2017-Oct-10 14:00N 59°37' E 005°14'3 5.7
2017-Oct-10 13:30N 59°34' E 005°14'611.4
2017-Oct-10 13:00N 59°28' E 005°13'611.2
2017-Oct-10 12:31N 59°23' E 005°18'3 5.5
2017-Oct-10 12:00N 59°20' E 005°18'0 0.0
2017-Oct-10 11:30N 59°20' E 005°18'0 0.0
2017-Oct-10 11:00N 59°20' E 005°18'0 0.0
2017-Oct-10 10:30N 59°20' E 005°18'0 0.0
2017-Oct-10 10:00N 59°20' E 005°18'0 0.0
2017-Oct-10 09:30N 59°20' E 005°18'0 0.1
2017-Oct-10 09:00N 59°20' E 005°18'0 0.0
2017-Oct-10 08:30N 59°20' E 005°18'0 0.0
2017-Oct-10 08:00N 59°20' E 005°18'0 0.0
2017-Oct-10 07:30N 59°20' E 005°18'0 0.0
2017-Oct-10 07:00N 59°20' E 005°18'0 0.0
2017-Oct-10 06:30N 59°20' E 005°18'0 0.0
2017-Oct-10 06:00N 59°20' E 005°18'0 0.0
2017-Oct-10 05:31N 59°20' E 005°18'0 0.0
2017-Oct-10 05:01N 59°20' E 005°18'0 0.0
2017-Oct-10 04:30N 59°20' E 005°18'0 0.0
2017-Oct-10 04:00N 59°20' E 005°18'0 0.0
2017-Oct-10 03:31N 59°20' E 005°18'0 0.0
2017-Oct-10 03:00N 59°20' E 005°18'0 0.0
2017-Oct-10 02:31N 59°20' E 005°18'0 0.0
2017-Oct-10 02:00N 59°20' E 005°18'0 0.0
2017-Oct-10 01:30N 59°20' E 005°18'0 0.0
2017-Oct-10 01:00N 59°20' E 005°18'0 0.0
2017-Oct-10 00:30N 59°20' E 005°18'0 0.0
2017-Oct-10 00:00N 59°20' E 005°18'0 0.0
2017-Oct-09 23:30N 59°20' E 005°18'0 0.0
2017-Oct-09 23:00N 59°20' E 005°18'0 0.0
2017-Oct-09 22:30N 59°20' E 005°18'0 0.0
2017-Oct-09 22:00N 59°20' E 005°18'0 0.0
2017-Oct-09 21:30N 59°20' E 005°18'0 0.9
2017-Oct-09 21:00N 59°20' E 005°18'4 8.2
2017-Oct-09 20:30N 59°24' E 005°16'0 0.0
2017-Oct-09 20:01N 59°24' E 005°16'0 0.0
2017-Oct-09 19:30N 59°24' E 005°16'3 6.5
2017-Oct-09 19:00N 59°27' E 005°13'510.2
2017-Oct-09 18:30N 59°32' E 005°13'611.6
2017-Oct-09 18:00N 59°38' E 005°16'0 0.9
2017-Oct-09 17:30N 59°38' E 005°15'0 0.6
2017-Oct-09 17:00N 59°38' E 005°15'0 0.5
2017-Oct-09 16:30N 59°39' E 005°15'0 0.5
2017-Oct-09 16:00N 59°39' E 005°15'2 4.7
2017-Oct-09 15:30N 59°40' E 005°19'5 9.6
2017-Oct-09 15:00N 59°45' E 005°22'611.1
2017-Oct-09 14:30N 59°49' E 005°18'510.5
2017-Oct-09 14:00N 59°54' E 005°12'5 9.8
2017-Oct-09 13:30N 59°57' E 005°04'5 9.4
2017-Oct-09 13:00N 60°00' E 004°58'611.2
2017-Oct-09 12:30N 60°06' E 004°56'510.9
2017-Oct-09 12:00N 60°11' E 004°55'510.7
2017-Oct-09 11:30N 60°17' E 004°53'611.5
2017-Oct-09 11:00N 60°22' E 004°50'611.6
2017-Oct-09 10:30N 60°28' E 004°47'511.0
2017-Oct-09 10:00N 60°33' E 004°45'510.4
2017-Oct-09 09:30N 60°38' E 004°42'510.2
2017-Oct-09 09:00N 60°43' E 004°39'510.8
2017-Oct-09 08:30N 60°48' E 004°37'611.3
2017-Oct-09 08:01N 60°54' E 004°34'611.4
2017-Oct-09 07:30N 60°59' E 004°29'510.5
2017-Oct-09 07:00N 61°04' E 004°24'5 9.7
2017-Oct-09 06:30N 61°07' E 004°18'  
Track history (hours):
 
Tides and Currents Weather Stations Pressure Air Temp Water Temp Dewpoint Dewpoint Depression Visibility Wind Speed Wind Dir Waves Ship Positions

Elisabeth

Last reported at 2017-Oct-18 04:26 UTC. Time now 2017-Oct-20 14:52 UTC.
Position N 62°21' E 004°45'.

Length 61 m; draft 5.6 m.

Type: Fishing. MMSI: 259166000.

Date/timePositionNaut miles runAvg speedWind from/ knotsBaromVisibWave heightAir tempDewpointWater temp
2017-Oct-18 04:26N 62°21' E 004°45'4 9.9
2017-Oct-18 04:00N 62°18' E 004°50'510.6
2017-Oct-18 03:30N 62°13' E 004°56'510.6
2017-Oct-18 02:59N 62°09' E 005°03'510.8
2017-Oct-18 02:30N 62°04' E 005°08'611.1
2017-Oct-18 02:00N 61°58' E 005°09'510.2
2017-Oct-18 01:30N 61°53' E 005°10'4 8.4
2017-Oct-18 01:00N 61°50' E 005°15'511.0
2017-Oct-18 00:30N 61°47' E 005°05'510.7
2017-Oct-18 00:00N 61°43' E 004°58'611.0
2017-Oct-17 23:30N 61°37' E 004°59'510.0
2017-Oct-17 23:00N 61°32' E 005°01'510.2
2017-Oct-17 22:30N 61°28' E 004°57'611.2
2017-Oct-17 22:00N 61°23' E 004°50'611.4
2017-Oct-17 21:29N 61°17' E 004°48'510.9
2017-Oct-17 21:00N 61°13' E 004°42'611.6
2017-Oct-17 20:30N 61°07' E 004°45'510.0
2017-Oct-17 20:00N 61°02' E 004°45'611.6
2017-Oct-17 19:30N 60°56' E 004°46'611.5
2017-Oct-17 19:00N 60°51' E 004°46'510.5
2017-Oct-17 18:29N 60°45' E 004°47'612.2
2017-Oct-17 18:00N 60°40' E 004°52'612.5
2017-Oct-17 17:30N 60°34' E 004°55'612.6
2017-Oct-17 17:00N 60°28' E 005°00'611.9
2017-Oct-17 16:30N 60°24' E 005°09'5 9.7
2017-Oct-17 16:00N 60°24' E 005°19'4 7.3
2017-Oct-17 15:29N 60°23' E 005°12'612.5
2017-Oct-17 15:00N 60°17' E 005°09'713.0
2017-Oct-17 14:30N 60°11' E 005°11'612.5
2017-Oct-17 14:00N 60°04' E 005°10'612.0
2017-Oct-17 13:30N 59°59' E 005°13'511.1
2017-Oct-17 13:00N 59°53' E 005°13'612.5
2017-Oct-17 12:30N 59°48' E 005°19'612.5
2017-Oct-17 12:00N 59°42' E 005°24'612.7
2017-Oct-17 11:30N 59°37' E 005°16'1 2.5
2017-Oct-17 11:00N 59°36' E 005°14'0 0.0
2017-Oct-17 10:30N 59°36' E 005°14'0 0.0
2017-Oct-17 10:00N 59°36' E 005°14'0 0.0
2017-Oct-17 09:30N 59°36' E 005°14'0 0.0
2017-Oct-17 09:01N 59°36' E 005°14'0 0.0
2017-Oct-17 08:30N 59°36' E 005°14'0 0.0
2017-Oct-17 08:01N 59°36' E 005°14'0 0.0
2017-Oct-17 07:30N 59°36' E 005°14'0 0.0
2017-Oct-17 06:59N 59°36' E 005°14'0 0.0
2017-Oct-17 06:30N 59°36' E 005°14'0 0.0
2017-Oct-17 06:00N 59°36' E 005°14'0 0.0
2017-Oct-17 05:30N 59°36' E 005°14'0 0.0
2017-Oct-17 05:01N 59°36' E 005°14'0 0.0
2017-Oct-17 04:29N 59°36' E 005°14'0 0.0
2017-Oct-17 04:00N 59°36' E 005°14'0 0.0
2017-Oct-17 03:30N 59°36' E 005°14'0 0.0
2017-Oct-17 03:00N 59°36' E 005°14'0 0.0
2017-Oct-17 02:30N 59°36' E 005°14'0 0.0
2017-Oct-17 01:59N 59°36' E 005°14'0 0.0
2017-Oct-17 01:30N 59°36' E 005°14'0 0.0
2017-Oct-17 01:00N 59°36' E 005°14'0 0.0
2017-Oct-17 00:30N 59°36' E 005°14'0 0.0
2017-Oct-17 00:00N 59°36' E 005°14'0 0.0
2017-Oct-16 23:30N 59°36' E 005°14'0 0.0
2017-Oct-16 23:00N 59°36' E 005°14'0 0.0
2017-Oct-16 22:30N 59°36' E 005°14'0 0.0
2017-Oct-16 22:00N 59°36' E 005°14'0 0.0
2017-Oct-16 21:30N 59°36' E 005°14'0 0.0
2017-Oct-16 21:00N 59°36' E 005°14'0 0.0
2017-Oct-16 20:30N 59°36' E 005°14'0 0.0
2017-Oct-16 20:00N 59°36' E 005°14'0 0.0
2017-Oct-16 19:30N 59°36' E 005°14'0 0.0
2017-Oct-16 19:00N 59°36' E 005°14'0 0.0
2017-Oct-16 18:30N 59°36' E 005°14'0 0.0
2017-Oct-16 18:00N 59°36' E 005°14'0 0.0
2017-Oct-16 17:30N 59°36' E 005°14'0 0.0
2017-Oct-16 17:00N 59°36' E 005°14'0 0.0
2017-Oct-16 16:30N 59°36' E 005°14'0 0.0
2017-Oct-16 16:00N 59°36' E 005°14'0 0.0
2017-Oct-16 15:30N 59°36' E 005°14'0 0.0
2017-Oct-16 15:01N 59°36' E 005°14'0 0.0
2017-Oct-16 14:00N 59°36' E 005°14'0 0.0
2017-Oct-16 13:30N 59°36' E 005°14'0 0.0
2017-Oct-16 13:00N 59°36' E 005°14'0 0.0
2017-Oct-16 12:30N 59°36' E 005°14'0 0.0
2017-Oct-16 12:00N 59°36' E 005°14'0 0.0
2017-Oct-16 11:30N 59°36' E 005°14'0 0.0
2017-Oct-16 11:01N 59°36' E 005°14'0 0.0
2017-Oct-16 10:30N 59°36' E 005°14'0 0.0
2017-Oct-16 10:00N 59°36' E 005°14'0 0.0
2017-Oct-16 09:30N 59°36' E 005°14'0 0.0
2017-Oct-16 09:00N 59°36' E 005°14'0 0.0
2017-Oct-16 08:30N 59°36' E 005°14'0 0.0
2017-Oct-16 08:00N 59°36' E 005°14'0 0.0
2017-Oct-16 07:29N 59°36' E 005°14'0 0.0
2017-Oct-16 07:00N 59°36' E 005°14'0 0.0
2017-Oct-16 06:30N 59°36' E 005°14'0 0.0
2017-Oct-16 06:00N 59°36' E 005°14'0 0.0
2017-Oct-16 05:30N 59°36' E 005°14'0 0.0
2017-Oct-16 05:00N 59°36' E 005°14'0 0.0
2017-Oct-16 04:30N 59°36' E 005°14'0 0.0
2017-Oct-16 04:00N 59°36' E 005°14'0 0.0
2017-Oct-16 03:31N 59°36' E 005°14'0 0.0
2017-Oct-16 03:00N 59°36' E 005°14'0 0.0
2017-Oct-16 02:30N 59°36' E 005°14'0 0.0
2017-Oct-16 02:00N 59°36' E 005°14'0 0.0
2017-Oct-16 01:30N 59°36' E 005°14'0 0.0
2017-Oct-16 01:00N 59°36' E 005°14'0 0.0
2017-Oct-16 00:29N 59°36' E 005°14'0 0.0
2017-Oct-16 00:00N 59°36' E 005°14'0 0.0
2017-Oct-15 23:30N 59°36' E 005°14'0 0.0
2017-Oct-15 23:00N 59°36' E 005°14'0 0.0
2017-Oct-15 22:30N 59°36' E 005°14'0 0.0
2017-Oct-15 22:00N 59°36' E 005°14'0 0.0
2017-Oct-15 21:30N 59°36' E 005°14'0 0.0
2017-Oct-15 21:00N 59°36' E 005°14'0 0.0
2017-Oct-15 20:30N 59°36' E 005°14'0 0.0
2017-Oct-15 20:00N 59°36' E 005°14'0 0.0
2017-Oct-15 19:30N 59°36' E 005°14'0 0.0
2017-Oct-15 19:00N 59°36' E 005°14'0 0.0
2017-Oct-15 18:30N 59°36' E 005°14'0 0.0
2017-Oct-15 18:01N 59°36' E 005°14'0 0.0
2017-Oct-15 17:30N 59°36' E 005°14'0 0.0
2017-Oct-15 17:00N 59°36' E 005°14'0 0.0
2017-Oct-15 16:30N 59°36' E 005°14'0 0.0
2017-Oct-15 16:00N 59°36' E 005°14'0 0.0
2017-Oct-15 15:30N 59°36' E 005°14'0 0.0
2017-Oct-15 15:00N 59°36' E 005°14'0 0.0
2017-Oct-15 14:00N 59°36' E 005°14'0 0.0
2017-Oct-15 13:30N 59°36' E 005°14'0 0.0
2017-Oct-15 13:00N 59°36' E 005°14'0 0.0
2017-Oct-15 12:30N 59°36' E 005°14'0 0.0
2017-Oct-15 12:01N 59°36' E 005°14'0 0.0
2017-Oct-15 11:30N 59°36' E 005°14'0 0.0
2017-Oct-15 11:00N 59°36' E 005°14'0 0.0
2017-Oct-15 10:31N 59°36' E 005°14'0 0.0
2017-Oct-15 10:00N 59°36' E 005°14'0 0.0
2017-Oct-15 09:30N 59°36' E 005°14'0 0.0
2017-Oct-15 09:00N 59°36' E 005°14'0 0.0
2017-Oct-15 08:30N 59°36' E 005°14'0 0.0
2017-Oct-15 08:00N 59°36' E 005°14'0 0.0
2017-Oct-15 07:30N 59°36' E 005°14'0 0.0
2017-Oct-15 07:00N 59°36' E 005°14'0 0.0
2017-Oct-15 06:30N 59°36' E 005°14'0 0.0
2017-Oct-15 06:00N 59°36' E 005°14'0 0.0
2017-Oct-15 05:30N 59°36' E 005°14'0 0.0
2017-Oct-15 05:01N 59°36' E 005°14'0 0.0
2017-Oct-15 04:30N 59°36' E 005°14'0 0.0
2017-Oct-15 04:00N 59°36' E 005°14'0 0.0
2017-Oct-15 03:30N 59°36' E 005°14'0 0.0
2017-Oct-15 03:00N 59°36' E 005°14'0 0.0
2017-Oct-15 02:30N 59°36' E 005°14'0 0.0
2017-Oct-15 02:00N 59°36' E 005°14'0 0.0
2017-Oct-15 01:30N 59°36' E 005°14'0 0.0
2017-Oct-15 01:00N 59°36' E 005°14'0 0.0
2017-Oct-15 00:31N 59°36' E 005°14'0 0.0
2017-Oct-15 00:00N 59°36' E 005°14'0 0.0
2017-Oct-14 23:30N 59°36' E 005°14'0 0.0
2017-Oct-14 23:01N 59°36' E 005°14'0 0.0
2017-Oct-14 22:31N 59°36' E 005°14'0 0.0
2017-Oct-14 22:00N 59°36' E 005°14'0 0.0
2017-Oct-14 21:30N 59°36' E 005°14'0 0.0
2017-Oct-14 21:00N 59°36' E 005°14'0 0.0
2017-Oct-14 20:30N 59°36' E 005°14'0 0.0
2017-Oct-14 20:00N 59°36' E 005°14'0 0.0
2017-Oct-14 19:30N 59°36' E 005°14'0 0.0
2017-Oct-14 19:00N 59°36' E 005°14'0 0.0
2017-Oct-14 18:31N 59°36' E 005°14'0 0.0
2017-Oct-14 18:00N 59°36' E 005°14'0 0.0
2017-Oct-14 17:30N 59°36' E 005°14'0 0.0
2017-Oct-14 16:59N 59°36' E 005°14'0 0.0
2017-Oct-14 16:30N 59°36' E 005°14'0 0.0
2017-Oct-14 16:00N 59°36' E 005°14'0 0.0
2017-Oct-14 15:30N 59°36' E 005°14'0 0.0
2017-Oct-14 14:59N 59°36' E 005°14'0 0.0
2017-Oct-14 14:30N 59°36' E 005°14'0 0.0
2017-Oct-14 14:00N 59°36' E 005°14'0 0.0
2017-Oct-14 13:30N 59°36' E 005°14'0 0.0
2017-Oct-14 13:00N 59°36' E 005°14'0 0.0
2017-Oct-14 12:31N 59°36' E 005°14'0 0.0
2017-Oct-14 12:01N 59°36' E 005°14'0 0.0
2017-Oct-14 11:30N 59°36' E 005°14'0 0.0
2017-Oct-14 10:59N 59°36' E 005°14'0 0.0
2017-Oct-14 10:30N 59°36' E 005°14'0 0.0
2017-Oct-14 10:00N 59°36' E 005°14'0 0.0
2017-Oct-14 09:30N 59°36' E 005°14'0 0.0
2017-Oct-14 09:00N 59°36' E 005°14'0 0.0
2017-Oct-14 08:30N 59°36' E 005°14'0 0.0
2017-Oct-14 08:00N 59°36' E 005°14'0 0.0
2017-Oct-14 07:30N 59°36' E 005°14'0 0.0
2017-Oct-14 07:00N 59°36' E 005°14'0 0.0
2017-Oct-14 06:30N 59°36' E 005°14'0 0.0
2017-Oct-14 06:00N 59°36' E 005°14'0 0.0
2017-Oct-14 05:31N 59°36' E 005°14'0 0.0
2017-Oct-14 05:01N 59°36' E 005°14'0 0.0
2017-Oct-14 04:30N 59°36' E 005°14'0 0.0
2017-Oct-14 04:00N 59°36' E 005°14'0 0.0
2017-Oct-14 03:30N 59°36' E 005°14'0 0.0
2017-Oct-14 03:00N 59°36' E 005°14'0 0.0
2017-Oct-14 02:30N 59°36' E 005°14'0 0.0
2017-Oct-14 02:00N 59°36' E 005°14'0 0.0
2017-Oct-14 01:30N 59°36' E 005°14'0 0.0
2017-Oct-14 01:00N 59°36' E 005°14'0 0.0
2017-Oct-14 00:30N 59°36' E 005°14'0 0.0
2017-Oct-14 00:00N 59°36' E 005°14'0 0.0
2017-Oct-13 23:30N 59°36' E 005°14'0 0.0
2017-Oct-13 23:00N 59°36' E 005°14'0 0.0
2017-Oct-13 22:31N 59°36' E 005°14'0 0.0
2017-Oct-13 22:00N 59°36' E 005°14'0 0.0
2017-Oct-13 21:31N 59°36' E 005°14'0 0.0
2017-Oct-13 21:01N 59°36' E 005°14'0 0.0
2017-Oct-13 20:30N 59°36' E 005°14'0 0.0
2017-Oct-13 19:59N 59°36' E 005°14'0 0.0
2017-Oct-13 19:30N 59°36' E 005°14'0 0.0
2017-Oct-13 18:59N 59°36' E 005°14'0 0.0
2017-Oct-13 18:30N 59°36' E 005°14'0 0.0
2017-Oct-13 18:00N 59°36' E 005°14'0 0.0
2017-Oct-13 17:30N 59°36' E 005°14'0 0.0
2017-Oct-13 17:00N 59°36' E 005°14'0 0.0
2017-Oct-13 16:30N 59°36' E 005°14'0 0.0
2017-Oct-13 16:00N 59°36' E 005°14'0 0.0
2017-Oct-13 15:30N 59°36' E 005°14'0 0.0
2017-Oct-13 15:00N 59°36' E 005°14'0 0.0
2017-Oct-13 14:30N 59°36' E 005°14'0 0.0
2017-Oct-13 14:00N 59°36' E 005°14'0 0.0
2017-Oct-13 13:30N 59°36' E 005°14'0 0.0
2017-Oct-13 13:00N 59°36' E 005°14'0 0.0
2017-Oct-13 12:30N 59°36' E 005°14'0 0.0
2017-Oct-13 12:00N 59°36' E 005°14'0 0.0
2017-Oct-13 11:30N 59°36' E 005°14'0 0.0
2017-Oct-13 11:00N 59°36' E 005°14'0 0.0
2017-Oct-13 10:30N 59°36' E 005°14'0 0.0
2017-Oct-13 10:00N 59°36' E 005°14'0 0.0
2017-Oct-13 09:30N 59°36' E 005°14'0 0.0
2017-Oct-13 09:00N 59°36' E 005°14'0 0.0
2017-Oct-13 08:30N 59°36' E 005°14'0 0.0
2017-Oct-13 08:00N 59°36' E 005°14'0 0.0
2017-Oct-13 07:30N 59°36' E 005°14'0 0.0
2017-Oct-13 07:00N 59°36' E 005°14'0 0.0
2017-Oct-13 06:30N 59°36' E 005°14'0 0.0
2017-Oct-13 06:01N 59°36' E 005°14'0 0.0
2017-Oct-13 05:30N 59°36' E 005°14'0 0.0
2017-Oct-13 05:00N 59°36' E 005°14'0 0.0
2017-Oct-13 04:30N 59°36' E 005°14'0 0.0
2017-Oct-13 04:00N 59°36' E 005°14'0 0.0
2017-Oct-13 03:30N 59°36' E 005°14'0 0.0
2017-Oct-13 02:59N 59°36' E 005°14'0 0.0
2017-Oct-13 02:30N 59°36' E 005°14'0 0.0
2017-Oct-13 02:01N 59°36' E 005°14'0 0.0
2017-Oct-13 01:30N 59°36' E 005°14'0 0.0
2017-Oct-13 01:00N 59°36' E 005°14'0 0.0
2017-Oct-13 00:31N 59°36' E 005°14'0 0.0
2017-Oct-13 00:00N 59°36' E 005°14'0 0.0
2017-Oct-12 23:30N 59°36' E 005°14'0 0.0
2017-Oct-12 23:01N 59°36' E 005°14'0 0.0
2017-Oct-12 22:30N 59°36' E 005°14'0 0.0
2017-Oct-12 21:58N 59°36' E 005°14'0 0.0
2017-Oct-12 21:31N 59°36' E 005°14'0 0.0
2017-Oct-12 21:01N 59°36' E 005°14'0 0.0
2017-Oct-12 20:30N 59°36' E 005°14'0 0.0
2017-Oct-12 20:01N 59°36' E 005°14'0 0.0
2017-Oct-12 19:31N 59°36' E 005°14'0 0.0
2017-Oct-12 19:00N 59°36' E 005°14'0 0.0
2017-Oct-12 18:31N 59°36' E 005°14'0 0.0
2017-Oct-12 18:00N 59°36' E 005°14'0 0.0
2017-Oct-12 17:31N 59°36' E 005°14'0 0.0
2017-Oct-12 17:01N 59°36' E 005°14'0 0.0
2017-Oct-12 16:29N 59°36' E 005°14'0 0.0
2017-Oct-12 16:00N 59°36' E 005°14'0 0.0
2017-Oct-12 15:29N 59°36' E 005°14'0 0.0
2017-Oct-12 14:59N 59°36' E 005°14'0 0.0
2017-Oct-12 14:31N 59°36' E 005°14'0 0.0
2017-Oct-12 14:00N 59°36' E 005°14'0 0.0
2017-Oct-12 13:31N 59°36' E 005°14'0 0.0
2017-Oct-12 13:00N 59°36' E 005°14'0 0.0
2017-Oct-12 12:31N 59°36' E 005°14'0 0.0
2017-Oct-12 12:00N 59°36' E 005°14'0 0.0
2017-Oct-12 11:30N 59°36' E 005°14'0 0.0
2017-Oct-12 11:01N 59°36' E 005°14'0 0.0
2017-Oct-12 10:30N 59°36' E 005°14'0 0.0
2017-Oct-12 10:00N 59°36' E 005°14'0 0.0
2017-Oct-12 09:30N 59°36' E 005°14'0 0.0
2017-Oct-12 09:00N 59°36' E 005°14'0 0.0
2017-Oct-12 08:29N 59°36' E 005°14'0 0.0
2017-Oct-12 08:00N 59°36' E 005°14'0 0.0
2017-Oct-12 07:31N 59°36' E 005°14'0 0.0
2017-Oct-12 07:00N 59°36' E 005°14'0 0.0
2017-Oct-12 06:30N 59°36' E 005°14'0 0.0
2017-Oct-12 06:00N 59°36' E 005°14'0 0.0
2017-Oct-12 05:30N 59°36' E 005°14'0 0.0
2017-Oct-12 05:01N 59°36' E 005°14'0 0.0
2017-Oct-12 04:30N 59°36' E 005°14'0 0.0
2017-Oct-12 04:00N 59°36' E 005°14'0 0.0
2017-Oct-12 03:30N 59°36' E 005°14'0 0.0
2017-Oct-12 03:00N 59°36' E 005°14'0 0.0
2017-Oct-12 02:30N 59°36' E 005°14'0 0.0
2017-Oct-12 02:00N 59°36' E 005°14'0 0.0
2017-Oct-12 01:30N 59°36' E 005°14'0 0.0
2017-Oct-12 01:00N 59°36' E 005°14'0 0.0
2017-Oct-12 00:30N 59°36' E 005°14'0 0.0
2017-Oct-12 00:00N 59°36' E 005°14'0 0.0
2017-Oct-11 23:30N 59°36' E 005°14'0 0.0
2017-Oct-11 23:00N 59°36' E 005°14'0 0.0
2017-Oct-11 22:30N 59°36' E 005°14'0 0.0
2017-Oct-11 22:00N 59°36' E 005°14'0 0.0
2017-Oct-11 21:31N 59°36' E 005°14'0 0.0
2017-Oct-11 21:00N 59°36' E 005°14'0 0.0
2017-Oct-11 20:30N 59°36' E 005°14'0 0.0
2017-Oct-11 20:01N 59°36' E 005°14'0 0.0
2017-Oct-11 19:30N 59°36' E 005°14'0 0.0
2017-Oct-11 19:00N 59°36' E 005°14'0 0.0
2017-Oct-11 18:30N 59°36' E 005°14'0 0.0
2017-Oct-11 18:01N 59°36' E 005°14'0 0.0
2017-Oct-11 17:30N 59°36' E 005°14'0 0.0
2017-Oct-11 17:00N 59°36' E 005°14'0 0.0
2017-Oct-11 00:00N 59°36' E 005°14'0 0.0
2017-Oct-10 23:30N 59°36' E 005°14'0 0.0
2017-Oct-10 23:00N 59°36' E 005°14'0 0.0
2017-Oct-10 22:30N 59°36' E 005°14'0 0.0
2017-Oct-10 22:01N 59°36' E 005°14'0 0.0
2017-Oct-10 21:31N 59°36' E 005°14'0 0.0
2017-Oct-10 21:00N 59°36' E 005°14'0 0.0
2017-Oct-10 20:30N 59°36' E 005°14'0 0.0
2017-Oct-10 20:00N 59°36' E 005°14'0 0.0
2017-Oct-10 19:31N 59°36' E 005°14'0 0.0
2017-Oct-10 19:00N 59°36' E 005°14'0 0.0
2017-Oct-10 18:29N 59°36' E 005°14'0 0.0
2017-Oct-10 18:00N 59°36' E 005°14'0 0.0
2017-Oct-10 17:29N 59°36' E 005°14'0 0.0
2017-Oct-10 17:01N 59°36' E 005°14'0 0.0
2017-Oct-10 16:30N 59°36' E 005°14'0 0.0
2017-Oct-10 16:00N 59°36' E 005°14'0 0.0
2017-Oct-10 15:29N 59°36' E 005°14'0 0.0
2017-Oct-10 15:01N 59°36' E 005°14'0 0.3
2017-Oct-10 14:00N 59°37' E 005°14'3 5.7
2017-Oct-10 13:30N 59°34' E 005°14'611.4
2017-Oct-10 13:00N 59°28' E 005°13'611.2
2017-Oct-10 12:31N 59°23' E 005°18'3 5.5
2017-Oct-10 12:00N 59°20' E 005°18'0 0.0
2017-Oct-10 11:30N 59°20' E 005°18'0 0.0
2017-Oct-10 11:00N 59°20' E 005°18'0 0.0
2017-Oct-10 10:30N 59°20' E 005°18'0 0.0
2017-Oct-10 10:00N 59°20' E 005°18'0 0.0
2017-Oct-10 09:30N 59°20' E 005°18'0 0.1
2017-Oct-10 09:00N 59°20' E 005°18'0 0.0
2017-Oct-10 08:30N 59°20' E 005°18'0 0.0
2017-Oct-10 08:00N 59°20' E 005°18'0 0.0
2017-Oct-10 07:30N 59°20' E 005°18'0 0.0
2017-Oct-10 07:00N 59°20' E 005°18'0 0.0
2017-Oct-10 06:30N 59°20' E 005°18'0 0.0
2017-Oct-10 06:00N 59°20' E 005°18'0 0.0
2017-Oct-10 05:31N 59°20' E 005°18'0 0.0
2017-Oct-10 05:01N 59°20' E 005°18'0 0.0
2017-Oct-10 04:30N 59°20' E 005°18'0 0.0
2017-Oct-10 04:00N 59°20' E 005°18'0 0.0
2017-Oct-10 03:31N 59°20' E 005°18'0 0.0
2017-Oct-10 03:00N 59°20' E 005°18'0 0.0
2017-Oct-10 02:31N 59°20' E 005°18'0 0.0
2017-Oct-10 02:00N 59°20' E 005°18'0 0.0
2017-Oct-10 01:30N 59°20' E 005°18'0 0.0
2017-Oct-10 01:00N 59°20' E 005°18'0 0.0
2017-Oct-10 00:30N 59°20' E 005°18'0 0.0
2017-Oct-10 00:00N 59°20' E 005°18'0 0.0
2017-Oct-09 23:30N 59°20' E 005°18'0 0.0
2017-Oct-09 23:00N 59°20' E 005°18'0 0.0
2017-Oct-09 22:30N 59°20' E 005°18'0 0.0
2017-Oct-09 22:00N 59°20' E 005°18'0 0.0
2017-Oct-09 21:30N 59°20' E 005°18'0 0.9
2017-Oct-09 21:00N 59°20' E 005°18'4 8.2
2017-Oct-09 20:30N 59°24' E 005°16'0 0.0
2017-Oct-09 20:01N 59°24' E 005°16'0 0.0
2017-Oct-09 19:30N 59°24' E 005°16'3 6.5
2017-Oct-09 19:00N 59°27' E 005°13'510.2
2017-Oct-09 18:30N 59°32' E 005°13'611.6
2017-Oct-09 18:00N 59°38' E 005°16'0 0.9
2017-Oct-09 17:30N 59°38' E 005°15'0 0.6
2017-Oct-09 17:00N 59°38' E 005°15'0 0.5
2017-Oct-09 16:30N 59°39' E 005°15'0 0.5
2017-Oct-09 16:00N 59°39' E 005°15'2 4.7
2017-Oct-09 15:30N 59°40' E 005°19'5 9.6
2017-Oct-09 15:00N 59°45' E 005°22'611.1
2017-Oct-09 14:30N 59°49' E 005°18'510.5
2017-Oct-09 14:00N 59°54' E 005°12'5 9.8
2017-Oct-09 13:30N 59°57' E 005°04'5 9.4
2017-Oct-09 13:00N 60°00' E 004°58'611.2
2017-Oct-09 12:30N 60°06' E 004°56'510.9
2017-Oct-09 12:00N 60°11' E 004°55'510.7
2017-Oct-09 11:30N 60°17' E 004°53'611.5
2017-Oct-09 11:00N 60°22' E 004°50'611.6
2017-Oct-09 10:30N 60°28' E 004°47'511.0
2017-Oct-09 10:00N 60°33' E 004°45'510.4
2017-Oct-09 09:30N 60°38' E 004°42'510.2
2017-Oct-09 09:00N 60°43' E 004°39'510.8
2017-Oct-09 08:30N 60°48' E 004°37'611.3
2017-Oct-09 08:01N 60°54' E 004°34'611.4
2017-Oct-09 07:30N 60°59' E 004°29'510.5
2017-Oct-09 07:00N 61°04' E 004°24'5 9.7
2017-Oct-09 06:30N 61°07' E 004°18'  

Dump ship's entire track history